createdAt,value
2018-09-02T00:01:06.967Z,15.93
2018-09-02T00:03:35.726Z,15.90
2018-09-02T00:06:04.210Z,15.86
2018-09-02T00:08:32.723Z,15.85
2018-09-02T00:11:01.260Z,15.80
2018-09-02T00:13:29.838Z,15.80
2018-09-02T00:15:59.047Z,15.76
2018-09-02T00:18:27.657Z,15.70
2018-09-02T00:20:56.248Z,15.68
2018-09-02T00:23:25.134Z,15.62
2018-09-02T00:25:53.737Z,15.63
2018-09-02T00:28:22.267Z,15.63
2018-09-02T00:30:50.958Z,15.66
2018-09-02T00:33:20.233Z,15.66
2018-09-02T00:35:49.037Z,15.67
2018-09-02T00:38:18.704Z,15.65
2018-09-02T00:40:47.833Z,15.65
2018-09-02T00:43:16.389Z,15.63
2018-09-02T00:45:44.939Z,15.57
2018-09-02T00:48:13.464Z,15.56
2018-09-02T00:50:42.088Z,15.53
2018-09-02T00:53:10.885Z,15.55
2018-09-02T00:55:39.495Z,15.54
2018-09-02T00:58:08.150Z,15.52
2018-09-02T01:00:36.652Z,15.53
2018-09-02T01:03:05.346Z,15.55
2018-09-02T01:05:33.911Z,15.59
2018-09-02T01:08:02.756Z,15.60
2018-09-02T01:10:31.898Z,15.63
2018-09-02T01:13:01.109Z,15.62
2018-09-02T01:15:30.068Z,15.61
2018-09-02T01:17:58.559Z,15.59
2018-09-02T01:20:27.357Z,15.57
2018-09-02T01:22:56.826Z,15.55
2018-09-02T01:25:25.279Z,15.53
2018-09-02T01:27:53.832Z,15.47
2018-09-02T01:30:22.655Z,15.42
2018-09-02T01:32:51.102Z,15.38
2018-09-02T01:35:24.782Z,15.33
2018-09-02T01:37:53.420Z,15.30
2018-09-02T01:40:21.887Z,15.31
2018-09-02T01:42:50.627Z,15.30
2018-09-02T01:45:19.097Z,15.26
2018-09-02T01:47:48.856Z,15.26
2018-09-02T01:50:18.041Z,15.29
2018-09-02T01:52:46.503Z,15.29
2018-09-02T01:55:15.057Z,15.31
2018-09-02T01:57:43.656Z,15.30
2018-09-02T02:00:12.123Z,15.29
2018-09-02T02:02:41.972Z,15.28
2018-09-02T02:05:10.824Z,15.27
2018-09-02T02:07:39.398Z,15.24
2018-09-02T02:10:08.264Z,15.20
2018-09-02T02:12:36.798Z,15.18
2018-09-02T02:15:05.384Z,15.14
2018-09-02T02:17:34.049Z,15.12
2018-09-02T02:20:03.284Z,15.12
2018-09-02T02:22:32.163Z,15.10
2018-09-02T02:25:01.015Z,15.02
2018-09-02T02:27:29.521Z,15.00
2018-09-02T02:29:58.682Z,15.04
2018-09-02T02:32:27.159Z,15.05
2018-09-02T02:34:58.884Z,15.06
2018-09-02T02:37:27.714Z,15.04
2018-09-02T02:39:57.224Z,15.04
2018-09-02T02:42:25.737Z,15.06
2018-09-02T02:44:54.609Z,15.07
2018-09-02T02:47:29.384Z,15.09
2018-09-02T02:49:57.913Z,15.08
2018-09-02T02:52:31.797Z,15.09
2018-09-02T02:55:00.232Z,15.04
2018-09-02T02:57:29.028Z,15.01
2018-09-02T02:59:58.328Z,14.99
2018-09-02T03:02:26.858Z,15.00
2018-09-02T03:04:56.031Z,15.01
2018-09-02T03:07:24.467Z,15.01
2018-09-02T03:09:52.934Z,15.01
2018-09-02T03:12:22.254Z,14.97
2018-09-02T03:14:50.756Z,14.94
2018-09-02T03:17:19.198Z,14.93
2018-09-02T03:19:47.915Z,14.91
2018-09-02T03:22:16.712Z,14.90
2018-09-02T03:24:45.590Z,14.90
2018-09-02T03:27:14.837Z,14.90
2018-09-02T03:29:44.063Z,14.86
2018-09-02T03:32:12.766Z,14.82
2018-09-02T03:34:41.948Z,14.74
2018-09-02T03:37:11.138Z,14.72
2018-09-02T03:39:39.730Z,14.71
2018-09-02T03:42:08.168Z,14.71
2018-09-02T03:44:36.620Z,14.72
2018-09-02T03:47:05.356Z,14.73
2018-09-02T03:49:34.610Z,14.72
2018-09-02T03:52:03.279Z,14.73
2018-09-02T03:54:31.772Z,14.72
2018-09-02T03:57:00.549Z,14.71
2018-09-02T03:59:30.532Z,14.69
2018-09-02T04:01:59.072Z,14.67
2018-09-02T04:04:28.041Z,14.64
2018-09-02T04:06:56.674Z,14.62
2018-09-02T04:09:25.216Z,14.61
2018-09-02T04:11:53.648Z,14.61
2018-09-02T04:14:22.916Z,14.58
2018-09-02T04:16:51.789Z,14.57
2018-09-02T04:19:20.310Z,14.55
2018-09-02T04:21:49.967Z,14.53
2018-09-02T04:24:19.098Z,14.50
2018-09-02T04:26:47.745Z,14.49
2018-09-02T04:29:16.248Z,14.49
2018-09-02T04:31:44.894Z,14.48
2018-09-02T04:34:13.431Z,14.46
2018-09-02T04:36:42.117Z,14.46
2018-09-02T04:39:10.912Z,14.44
2018-09-02T04:41:39.763Z,14.41
2018-09-02T04:44:08.422Z,14.40
2018-09-02T04:46:37.077Z,14.36
2018-09-02T04:49:06.117Z,14.36
2018-09-02T04:51:34.697Z,14.36
2018-09-02T04:54:03.194Z,14.36
2018-09-02T04:56:31.653Z,14.34
2018-09-02T04:59:00.186Z,14.35
2018-09-02T05:01:28.857Z,14.33
2018-09-02T05:03:57.468Z,14.30
2018-09-02T05:06:25.949Z,14.27
2018-09-02T05:08:55.966Z,14.24
2018-09-02T05:11:24.876Z,14.15
2018-09-02T05:13:53.614Z,14.08
2018-09-02T05:16:22.131Z,14.09
2018-09-02T05:18:53.744Z,14.12
2018-09-02T05:21:22.217Z,14.18
2018-09-02T05:23:51.025Z,14.20
2018-09-02T05:26:20.379Z,14.21
2018-09-02T05:28:48.987Z,14.25
2018-09-02T05:31:17.743Z,14.24
2018-09-02T05:33:46.287Z,14.20
2018-09-02T05:36:15.049Z,14.14
2018-09-02T05:38:44.314Z,14.16
2018-09-02T05:41:12.820Z,14.16
2018-09-02T05:43:42.602Z,14.17
2018-09-02T05:46:11.062Z,14.19
2018-09-02T05:48:39.556Z,14.16
2018-09-02T05:51:08.142Z,14.15
2018-09-02T05:53:36.774Z,14.19
2018-09-02T05:56:05.640Z,14.23
2018-09-02T05:58:34.164Z,14.30
2018-09-02T06:01:02.809Z,14.35
2018-09-02T06:03:31.616Z,14.40
2018-09-02T06:06:00.318Z,14.43
2018-09-02T06:08:28.997Z,14.44
2018-09-02T06:10:58.628Z,14.44
2018-09-02T06:13:27.448Z,14.49
2018-09-02T06:15:56.019Z,14.53
2018-09-02T06:18:24.608Z,14.57
2018-09-02T06:20:53.831Z,14.60
2018-09-02T06:23:22.373Z,14.62
2018-09-02T06:25:50.933Z,14.61
2018-09-02T06:28:19.932Z,14.63
2018-09-02T06:30:48.376Z,14.70
2018-09-02T06:33:17.106Z,14.75
2018-09-02T06:35:45.841Z,14.78
2018-09-02T06:38:14.472Z,14.82
2018-09-02T06:40:43.321Z,14.86
2018-09-02T06:43:11.950Z,14.91
2018-09-02T06:45:41.538Z,14.94
2018-09-02T06:48:10.239Z,14.99
2018-09-02T06:50:38.699Z,15.00
2018-09-02T06:53:07.289Z,15.01
2018-09-02T06:55:35.780Z,15.04
2018-09-02T06:58:04.274Z,15.07
2018-09-02T07:00:33.673Z,15.12
2018-09-02T07:03:02.369Z,15.19
2018-09-02T07:05:32.697Z,15.27
2018-09-02T07:08:01.363Z,15.30
2018-09-02T07:10:30.074Z,15.35
2018-09-02T07:12:59.132Z,15.40
2018-09-02T07:15:28.253Z,15.45
2018-09-02T07:17:56.912Z,15.51
2018-09-02T07:20:25.575Z,15.57
2018-09-02T07:22:54.191Z,15.62
2018-09-02T07:25:22.771Z,15.68
2018-09-02T07:27:52.101Z,15.74
2018-09-02T07:30:20.638Z,15.80
2018-09-02T07:32:55.729Z,15.87
2018-09-02T07:35:24.400Z,15.91
2018-09-02T07:37:53.021Z,15.95
2018-09-02T07:40:21.580Z,16.02
2018-09-02T07:42:50.182Z,16.08
2018-09-02T07:45:25.529Z,16.14
2018-09-02T07:47:54.293Z,16.20
2018-09-02T07:50:22.861Z,16.25
2018-09-02T07:52:51.450Z,16.31
2018-09-02T07:55:20.115Z,16.38
2018-09-02T07:57:48.595Z,16.48
2018-09-02T08:00:17.360Z,16.57
2018-09-02T08:02:45.915Z,16.62
2018-09-02T08:05:14.875Z,16.68
2018-09-02T08:07:43.661Z,16.73
2018-09-02T08:10:12.875Z,16.79
2018-09-02T08:12:48.547Z,16.90
2018-09-02T08:15:17.153Z,16.94
2018-09-02T08:17:45.718Z,17.00
2018-09-02T08:20:14.301Z,17.05
2018-09-02T08:22:43.058Z,17.15
2018-09-02T08:25:11.552Z,17.19
2018-09-02T08:27:40.109Z,17.24
2018-09-02T08:30:08.693Z,17.36
2018-09-02T08:32:37.385Z,17.48
2018-09-02T08:35:07.139Z,17.51
2018-09-02T08:37:35.575Z,17.55
2018-09-02T08:40:04.302Z,17.61
2018-09-02T08:42:32.971Z,17.66
2018-09-02T08:45:01.585Z,17.73
2018-09-02T08:47:31.165Z,17.82
2018-09-02T08:50:00.077Z,17.90
2018-09-02T08:52:28.777Z,17.96
2018-09-02T08:54:57.424Z,18.06
2018-09-02T08:57:25.933Z,18.16
2018-09-02T08:59:54.461Z,18.28
2018-09-02T09:02:23.270Z,18.41
2018-09-02T09:04:51.805Z,18.50
2018-09-02T09:07:21.809Z,18.58
2018-09-02T09:09:50.505Z,18.78
2018-09-02T09:12:19.115Z,18.96
2018-09-02T09:14:47.866Z,19.06
2018-09-02T09:17:16.382Z,19.06
2018-09-02T09:19:44.944Z,19.20
2018-09-02T09:22:13.665Z,19.34
2018-09-02T09:24:42.394Z,19.44
2018-09-02T09:27:11.071Z,19.50
2018-09-02T09:29:39.677Z,19.56
2018-09-02T09:32:08.474Z,19.71
2018-09-02T09:34:37.020Z,19.78
2018-09-02T09:37:05.897Z,19.94
2018-09-02T09:39:34.537Z,20.04
2018-09-02T09:42:03.090Z,20.10
2018-09-02T09:44:31.564Z,20.15
2018-09-02T09:47:00.205Z,20.33
2018-09-02T09:49:28.972Z,20.41
2018-09-02T09:51:58.252Z,20.55
2018-09-02T09:54:26.890Z,20.70
2018-09-02T09:56:55.409Z,20.77
2018-09-02T09:59:24.385Z,20.87
2018-09-02T10:01:54.724Z,20.92
2018-09-02T10:04:24.291Z,21.03
2018-09-02T10:06:52.817Z,21.15
2018-09-02T10:09:21.587Z,21.28
2018-09-02T10:11:50.098Z,21.38
2018-09-02T10:14:18.534Z,21.48
2018-09-02T10:16:47.014Z,21.60
2018-09-02T10:19:15.779Z,21.70
2018-09-02T10:21:44.757Z,21.79
2018-09-02T10:24:13.592Z,21.87
2018-09-02T10:26:42.269Z,22.01
2018-09-02T10:29:10.950Z,22.16
2018-09-02T10:31:39.601Z,22.35
2018-09-02T10:34:08.525Z,22.56
2018-09-02T10:36:37.556Z,22.79
2018-09-02T10:39:07.974Z,22.97
2018-09-02T10:41:36.722Z,23.10
2018-09-02T10:44:05.480Z,23.22
2018-09-02T10:46:34.073Z,23.35
2018-09-02T10:49:02.815Z,23.44
2018-09-02T10:51:31.563Z,23.56
2018-09-02T10:54:00.176Z,23.71
2018-09-02T10:56:29.063Z,23.87
2018-09-02T10:58:57.693Z,23.97
2018-09-02T11:01:27.433Z,24.08
2018-09-02T11:03:55.930Z,24.19
2018-09-02T11:06:24.843Z,24.29
2018-09-02T11:08:53.419Z,24.41
2018-09-02T11:11:22.327Z,24.48
2018-09-02T11:13:51.174Z,24.34
2018-09-02T11:16:19.599Z,24.40
2018-09-02T11:18:49.435Z,24.55
2018-09-02T11:21:17.976Z,24.73
2018-09-02T11:23:47.266Z,24.67
2018-09-02T11:26:15.896Z,24.74
2018-09-02T11:28:44.428Z,24.91
2018-09-02T11:31:13.105Z,25.12
2018-09-02T11:33:41.687Z,25.38
2018-09-02T11:36:10.228Z,25.54
2018-09-02T11:38:38.888Z,25.71
2018-09-02T11:41:07.484Z,25.82
2018-09-02T11:43:35.997Z,25.79
2018-09-02T11:46:06.030Z,25.84
2018-09-02T11:48:34.520Z,25.94
2018-09-02T11:51:03.282Z,26.05
2018-09-02T11:53:31.874Z,26.17
2018-09-02T11:56:00.710Z,26.32
2018-09-02T11:58:29.305Z,26.46
2018-09-02T12:00:57.819Z,26.62
2018-09-02T12:03:27.352Z,26.71
2018-09-02T12:05:56.049Z,26.82
2018-09-02T12:08:24.575Z,26.95
2018-09-02T12:10:53.123Z,27.08
2018-09-02T12:13:21.730Z,27.17
2018-09-02T12:15:50.716Z,27.28
2018-09-02T12:18:19.368Z,27.44
2018-09-02T12:20:47.837Z,27.58
2018-09-02T12:23:16.402Z,27.61
2018-09-02T12:25:45.077Z,27.80
2018-09-02T12:28:13.814Z,27.87
2018-09-02T12:30:42.422Z,27.83
2018-09-02T12:33:11.041Z,27.98
2018-09-02T12:35:39.536Z,28.24
2018-09-02T12:38:08.182Z,28.45
2018-09-02T12:40:36.819Z,28.61
2018-09-02T12:43:05.318Z,28.69
2018-09-02T12:45:34.407Z,28.82
2018-09-02T12:48:03.340Z,28.99
2018-09-02T12:50:31.906Z,28.97
2018-09-02T12:53:00.585Z,29.02
2018-09-02T12:55:29.426Z,29.04
2018-09-02T12:57:58.827Z,29.13
2018-09-02T13:00:27.496Z,29.32
2018-09-02T13:02:56.205Z,29.47
2018-09-02T13:05:24.697Z,29.53
2018-09-02T13:07:53.516Z,29.71
2018-09-02T13:10:22.381Z,29.85
2018-09-02T13:12:51.001Z,30.03
2018-09-02T13:15:20.334Z,30.52
2018-09-02T13:17:48.805Z,31.21
2018-09-02T13:20:17.805Z,31.92
2018-09-02T13:22:46.893Z,32.08
2018-09-02T13:25:15.880Z,31.66
2018-09-02T13:27:44.388Z,31.30
2018-09-02T13:30:14.035Z,31.01
2018-09-02T13:32:42.678Z,30.81
2018-09-02T13:35:11.309Z,30.59
2018-09-02T13:37:40.560Z,30.42
2018-09-02T13:40:09.569Z,30.36
2018-09-02T13:42:38.162Z,30.30
2018-09-02T13:45:08.432Z,30.21
2018-09-02T13:47:36.927Z,29.94
2018-09-02T13:50:05.509Z,29.90
2018-09-02T13:52:34.306Z,29.73
2018-09-02T13:55:03.487Z,29.69
2018-09-02T13:57:32.317Z,29.77
2018-09-02T14:00:00.789Z,29.87
2018-09-02T14:02:29.322Z,29.91
2018-09-02T14:04:57.905Z,29.96
2018-09-02T14:07:26.361Z,29.92
2018-09-02T14:09:54.982Z,29.73
2018-09-02T14:12:24.494Z,29.71
2018-09-02T14:14:53.769Z,29.81
2018-09-02T14:17:22.319Z,29.86
2018-09-02T14:19:50.952Z,29.78
2018-09-02T14:22:19.716Z,29.80
2018-09-02T14:24:48.194Z,29.49
2018-09-02T14:27:16.873Z,29.38
2018-09-02T14:29:45.495Z,29.44
2018-09-02T14:32:14.001Z,29.53
2018-09-02T14:34:43.494Z,30.41
2018-09-02T14:37:18.846Z,30.84
2018-09-02T14:39:47.349Z,30.63
2018-09-02T14:42:16.079Z,30.51
2018-09-02T14:44:44.675Z,30.34
2018-09-02T14:47:13.282Z,30.36
2018-09-02T14:49:41.823Z,30.44
2018-09-02T14:52:10.401Z,30.61
2018-09-02T14:54:38.960Z,30.87
2018-09-02T14:57:07.703Z,31.35
2018-09-02T14:59:36.194Z,31.71
2018-09-02T15:02:04.791Z,32.02
2018-09-02T15:04:33.395Z,32.48
2018-09-02T15:07:02.152Z,32.82
2018-09-02T15:09:31.310Z,32.57
2018-09-02T15:11:59.918Z,32.41
2018-09-02T15:14:28.532Z,32.75
2018-09-02T15:16:57.048Z,33.02
2018-09-02T15:19:25.741Z,33.35
2018-09-02T15:21:54.421Z,33.83
2018-09-02T15:24:22.934Z,34.46
2018-09-02T15:26:51.434Z,34.54
2018-09-02T15:29:20.057Z,35.18
2018-09-02T15:31:48.679Z,35.81
2018-09-02T15:34:18.133Z,36.03
2018-09-02T15:36:46.632Z,35.99
2018-09-02T15:39:15.907Z,35.44
2018-09-02T15:41:44.741Z,34.37
2018-09-02T15:44:13.563Z,33.32
2018-09-02T15:46:42.107Z,32.31
2018-09-02T15:49:10.839Z,31.54
2018-09-02T15:51:39.611Z,30.94
2018-09-02T15:54:08.371Z,30.46
2018-09-02T15:56:37.033Z,30.06
2018-09-02T15:59:05.992Z,29.67
2018-09-02T16:01:34.795Z,29.31
2018-09-02T16:04:03.443Z,29.07
2018-09-02T16:06:32.793Z,28.93
2018-09-02T16:09:01.181Z,28.85
2018-09-02T16:11:29.667Z,28.68
2018-09-02T16:13:58.155Z,28.49
2018-09-02T16:16:26.799Z,28.11
2018-09-02T16:18:55.529Z,27.99
2018-09-02T16:21:24.010Z,27.87
2018-09-02T16:23:52.469Z,27.85
2018-09-02T16:26:20.993Z,27.72
2018-09-02T16:28:49.581Z,27.64
2018-09-02T16:31:19.514Z,27.47
2018-09-02T16:33:48.472Z,27.28
2018-09-02T16:36:17.059Z,27.20
2018-09-02T16:38:45.559Z,27.11
2018-09-02T16:41:14.444Z,27.09
2018-09-02T16:43:43.032Z,26.87
2018-09-02T16:46:11.587Z,26.73
2018-09-02T16:48:40.878Z,26.63
2018-09-02T16:51:10.079Z,26.52
2018-09-02T16:53:38.860Z,26.41
2018-09-02T16:56:08.188Z,26.36
2018-09-02T16:58:37.534Z,26.33
2018-09-02T17:01:06.322Z,26.26
2018-09-02T17:03:39.312Z,26.21
2018-09-02T17:06:08.052Z,26.14
2018-09-02T17:08:37.240Z,26.11
2018-09-02T17:11:06.429Z,26.07
2018-09-02T17:13:35.818Z,25.97
2018-09-02T17:16:04.480Z,25.91
2018-09-02T17:18:33.085Z,25.82
2018-09-02T17:21:01.660Z,25.78
2018-09-02T17:23:30.221Z,25.75
2018-09-02T17:25:59.423Z,25.65
2018-09-02T17:28:29.239Z,25.55
2018-09-02T17:30:58.628Z,25.39
2018-09-02T17:33:27.811Z,25.28
2018-09-02T17:35:56.674Z,25.17
2018-09-02T17:38:25.480Z,25.12
2018-09-02T17:40:54.217Z,25.07
2018-09-02T17:43:23.528Z,24.98
2018-09-02T17:45:52.421Z,24.90
2018-09-02T17:48:27.981Z,24.82
2018-09-02T17:50:56.944Z,24.83
2018-09-02T17:53:26.288Z,24.77
2018-09-02T17:55:55.018Z,24.73
2018-09-02T17:58:24.560Z,24.76
2018-09-02T18:00:55.510Z,24.74
2018-09-02T18:03:24.562Z,24.71
2018-09-02T18:05:53.242Z,24.71
2018-09-02T18:08:22.591Z,24.72
2018-09-02T18:10:51.279Z,24.70
2018-09-02T18:13:19.915Z,24.63
2018-09-02T18:15:49.298Z,24.58
2018-09-02T18:18:17.792Z,24.55
2018-09-02T18:20:46.613Z,24.51
2018-09-02T18:23:16.162Z,24.49
2018-09-02T18:25:44.779Z,24.42
2018-09-02T18:28:16.698Z,24.35
2018-09-02T18:30:45.965Z,24.34
2018-09-02T18:33:15.727Z,24.34
2018-09-02T18:35:44.858Z,24.31
2018-09-02T18:38:13.912Z,24.28
2018-09-02T18:40:43.331Z,24.24
2018-09-02T18:43:11.964Z,24.22
2018-09-02T18:45:40.873Z,24.20
2018-09-02T18:48:09.619Z,24.15
2018-09-02T18:50:38.831Z,24.08
2018-09-02T18:53:08.041Z,24.03
2018-09-02T18:55:37.558Z,23.99
2018-09-02T18:58:06.123Z,23.94
2018-09-02T19:00:34.736Z,23.91
2018-09-02T19:03:04.096Z,23.88
2018-09-02T19:05:32.857Z,23.86
2018-09-02T19:08:01.451Z,23.83
2018-09-02T19:10:30.475Z,23.80
2018-09-02T19:12:59.460Z,23.81
2018-09-02T19:15:28.865Z,23.77
2018-09-02T19:17:58.578Z,23.76
2018-09-02T19:20:27.213Z,23.68
2018-09-02T19:22:55.685Z,23.68
2018-09-02T19:25:24.233Z,23.66
2018-09-02T19:27:52.656Z,23.63
2018-09-02T19:30:21.345Z,23.63
2018-09-02T19:32:50.289Z,23.62
2018-09-02T19:35:19.328Z,23.59
2018-09-02T19:37:49.331Z,23.54
2018-09-02T19:40:18.312Z,23.49
2018-09-02T19:42:47.007Z,23.45
2018-09-02T19:45:15.935Z,23.37
2018-09-02T19:47:44.623Z,23.34
2018-09-02T19:50:13.468Z,23.28
2018-09-02T19:52:43.426Z,23.20
2018-09-02T19:55:11.982Z,23.16
2018-09-02T19:57:41.161Z,23.14
2018-09-02T20:00:10.732Z,23.11
2018-09-02T20:02:39.459Z,23.08
2018-09-02T20:05:09.095Z,23.08
2018-09-02T20:07:38.190Z,23.07
2018-09-02T20:10:08.172Z,23.05
2018-09-02T20:12:36.674Z,23.02
2018-09-02T20:15:06.091Z,23.01
2018-09-02T20:17:35.566Z,23.03
2018-09-02T20:20:04.273Z,22.99
2018-09-02T20:22:32.959Z,22.97
2018-09-02T20:25:01.584Z,22.96
2018-09-02T20:27:30.045Z,22.94
2018-09-02T20:29:58.554Z,22.90
2018-09-02T20:32:27.194Z,22.86
2018-09-02T20:34:55.794Z,22.80
2018-09-02T20:37:25.440Z,22.72
2018-09-02T20:39:54.004Z,22.65
2018-09-02T20:42:29.594Z,22.65
2018-09-02T20:44:58.388Z,22.61
2018-09-02T20:47:27.793Z,22.55
2018-09-02T20:49:59.047Z,22.53
2018-09-02T20:52:27.686Z,22.52
2018-09-02T20:54:56.354Z,22.54
2018-09-02T20:57:24.916Z,22.55
2018-09-02T20:59:53.375Z,22.53
2018-09-02T21:02:21.910Z,22.51
2018-09-02T21:04:50.594Z,22.50
2018-09-02T21:07:19.151Z,22.46
2018-09-02T21:09:47.938Z,22.42
2018-09-02T21:12:16.394Z,22.41
2018-09-02T21:14:45.319Z,22.41
2018-09-02T21:17:14.765Z,22.40
2018-09-02T21:19:44.012Z,22.39
2018-09-02T21:22:12.620Z,22.41
2018-09-02T21:24:42.747Z,22.37
2018-09-02T21:27:11.980Z,22.35
2018-09-02T21:29:40.426Z,22.33
2018-09-02T21:32:09.916Z,22.34
2018-09-02T21:34:40.270Z,22.32
2018-09-02T21:37:08.829Z,22.28
2018-09-02T21:39:43.812Z,22.24
2018-09-02T21:42:13.527Z,22.23
2018-09-02T21:44:42.197Z,22.20
2018-09-02T21:47:10.894Z,22.16
2018-09-02T21:52:07.949Z,22.13
2018-09-02T21:54:37.296Z,22.14
2018-09-02T21:57:06.018Z,22.11
2018-09-02T21:59:35.848Z,22.09
2018-09-02T22:02:05.294Z,22.08
2018-09-02T22:04:34.024Z,22.05
2018-09-02T22:07:03.201Z,22.04
2018-09-02T22:09:31.947Z,22.00
2018-09-02T22:12:00.512Z,21.95
2018-09-02T22:14:29.277Z,21.93
2018-09-02T22:16:57.700Z,21.91
2018-09-02T22:19:26.357Z,21.87
2018-09-02T22:22:01.540Z,21.83
2018-09-02T22:24:30.729Z,21.76
2018-09-02T22:26:59.580Z,21.74
2018-09-02T22:29:28.212Z,21.70
2018-09-02T22:31:56.756Z,21.71
2018-09-02T22:34:25.452Z,21.65
2018-09-02T22:36:54.000Z,21.66
2018-09-02T22:39:22.427Z,21.67
2018-09-02T22:41:51.189Z,21.66
2018-09-02T22:44:19.720Z,21.62
2018-09-02T22:46:48.294Z,21.56
2018-09-02T22:49:16.841Z,21.54
2018-09-02T22:51:45.381Z,21.51
2018-09-02T22:54:14.835Z,21.47
2018-09-02T22:56:43.383Z,21.43
2018-09-02T22:59:11.926Z,21.40
2018-09-02T23:01:40.987Z,21.38
2018-09-02T23:04:09.438Z,21.36
2018-09-02T23:06:37.990Z,21.34
2018-09-02T23:09:07.658Z,21.37
2018-09-02T23:11:36.438Z,21.39
2018-09-02T23:14:05.273Z,21.38
2018-09-02T23:16:34.840Z,21.37
2018-09-02T23:19:07.407Z,21.36
2018-09-02T23:21:35.932Z,21.38
2018-09-02T23:24:04.459Z,21.35
2018-09-02T23:26:33.084Z,21.32
2018-09-02T23:29:02.624Z,21.30
2018-09-02T23:31:31.329Z,21.26
2018-09-02T23:33:59.905Z,21.17
2018-09-02T23:36:28.367Z,21.12
2018-09-02T23:38:56.828Z,21.11
2018-09-02T23:41:25.615Z,21.10
2018-09-02T23:43:54.101Z,21.09
2018-09-02T23:46:22.798Z,21.13
2018-09-02T23:48:51.189Z,21.12
2018-09-02T23:51:19.868Z,21.11
2018-09-02T23:53:48.503Z,21.10
2018-09-02T23:56:16.955Z,21.09
2018-09-02T23:58:46.272Z,21.10
